createdAt,value
2018-02-21T00:01:03.348Z,26.00
2018-02-21T00:03:29.712Z,25.50
2018-02-21T00:05:55.961Z,26.07
2018-02-21T00:08:22.301Z,25.00
2018-02-21T00:10:49.259Z,24.83
2018-02-21T00:13:15.524Z,26.50
2018-02-21T00:15:42.008Z,24.67
2018-02-21T00:18:08.229Z,24.73
2018-02-21T00:20:34.484Z,25.23
2018-02-21T00:23:00.710Z,26.03
2018-02-21T00:25:26.961Z,25.67
2018-02-21T00:27:53.192Z,24.87
2018-02-21T00:30:19.530Z,24.50
2018-02-21T00:32:45.756Z,24.93
2018-02-21T00:35:12.014Z,25.47
2018-02-21T00:37:38.208Z,25.23
2018-02-21T00:40:05.001Z,25.20
2018-02-21T00:42:31.275Z,24.10
2018-02-21T00:44:57.550Z,23.50
2018-02-21T00:47:23.833Z,25.43
2018-02-21T00:49:50.095Z,24.73
2018-02-21T00:52:16.363Z,23.63
2018-02-21T00:54:43.331Z,25.87
2018-02-21T00:57:09.660Z,25.17
2018-02-21T00:59:49.079Z,23.73
2018-02-21T01:02:16.076Z,26.13
2018-02-21T01:04:43.042Z,24.20
2018-02-21T01:07:09.304Z,25.87
2018-02-21T01:09:35.545Z,24.73
2018-02-21T01:12:01.804Z,23.57
2018-02-21T01:14:28.784Z,24.73
2018-02-21T01:16:55.004Z,25.80
2018-02-21T01:19:21.228Z,24.10
2018-02-21T01:21:47.479Z,24.27
2018-02-21T01:24:13.770Z,24.10
2018-02-21T01:26:40.834Z,24.93
2018-02-21T01:29:07.090Z,24.47
2018-02-21T01:31:33.334Z,23.10
2018-02-21T01:33:59.784Z,23.27
2018-02-21T01:36:26.015Z,23.43
2018-02-21T01:38:52.430Z,23.93
2018-02-21T01:41:18.680Z,24.97
2018-02-21T01:43:45.004Z,21.27
2018-02-21T01:46:11.284Z,24.27
2018-02-21T01:48:37.584Z,25.37
2018-02-21T01:51:04.011Z,24.07
2018-02-21T01:53:30.228Z,23.10
2018-02-21T01:55:56.666Z,22.90
2018-02-21T01:58:22.896Z,24.80
2018-02-21T02:00:49.132Z,22.27
2018-02-21T02:03:15.345Z,23.23
2018-02-21T02:05:41.632Z,23.53
2018-02-21T02:08:07.893Z,23.77
2018-02-21T02:10:34.880Z,24.00
2018-02-21T02:13:01.136Z,23.33
2018-02-21T02:15:27.365Z,25.40
2018-02-21T02:17:54.355Z,22.80
2018-02-21T02:20:20.693Z,21.90
2018-02-21T02:22:47.173Z,24.20
2018-02-21T02:25:13.400Z,24.00
2018-02-21T02:27:39.834Z,23.30
2018-02-21T02:30:06.131Z,23.27
2018-02-21T02:32:32.485Z,23.83
2018-02-21T02:34:58.737Z,23.70
2018-02-21T02:37:25.759Z,23.83
2018-02-21T02:40:00.255Z,22.37
2018-02-21T02:42:26.525Z,22.97
2018-02-21T02:44:53.569Z,23.77
2018-02-21T02:47:19.951Z,23.30
2018-02-21T02:49:46.224Z,23.30
2018-02-21T02:52:12.466Z,23.33
2018-02-21T02:54:39.589Z,23.70
2018-02-21T02:57:05.986Z,23.90
2018-02-21T02:59:32.241Z,23.37
2018-02-21T03:01:58.536Z,23.07
2018-02-21T03:04:24.893Z,24.97
2018-02-21T03:06:51.243Z,23.87
2018-02-21T03:09:17.586Z,23.60
2018-02-21T03:11:44.585Z,23.53
2018-02-21T03:14:10.846Z,24.13
2018-02-21T03:16:37.161Z,22.10
2018-02-21T03:19:03.412Z,23.13
2018-02-21T03:21:30.395Z,25.83
2018-02-21T03:23:56.783Z,24.37
2018-02-21T03:26:23.174Z,22.00
2018-02-21T03:28:49.410Z,23.60
2018-02-21T03:31:15.710Z,24.50
2018-02-21T03:33:42.692Z,24.47
2018-02-21T03:36:09.043Z,24.43
2018-02-21T03:38:35.313Z,25.70
2018-02-21T03:41:01.674Z,22.87
2018-02-21T03:43:28.010Z,24.17
2018-02-21T03:45:54.367Z,25.00
2018-02-21T03:48:20.698Z,21.40
2018-02-21T03:50:46.954Z,23.13
2018-02-21T03:53:13.905Z,23.70
2018-02-21T03:55:40.167Z,24.30
2018-02-21T03:58:06.399Z,27.00
2018-02-21T04:00:32.669Z,24.50
2018-02-21T04:02:59.670Z,22.87
2018-02-21T04:05:25.872Z,25.07
2018-02-21T04:07:52.944Z,23.50
2018-02-21T04:10:19.273Z,24.90
2018-02-21T04:12:45.553Z,24.13
2018-02-21T04:15:12.685Z,26.60
2018-02-21T04:17:39.971Z,25.90
2018-02-21T04:20:07.024Z,26.20
2018-02-21T04:22:33.353Z,23.40
2018-02-21T04:25:00.370Z,26.30
2018-02-21T04:27:26.638Z,23.93
2018-02-21T04:29:53.009Z,23.63
2018-02-21T04:32:19.413Z,26.20
2018-02-21T04:34:45.670Z,24.73
2018-02-21T04:37:12.071Z,26.10
2018-02-21T04:39:38.310Z,25.60
2018-02-21T04:42:04.603Z,24.70
2018-02-21T04:44:31.589Z,24.37
2018-02-21T04:46:57.896Z,25.07
2018-02-21T04:49:24.123Z,25.33
2018-02-21T04:51:50.337Z,25.07
2018-02-21T04:54:23.419Z,26.57
2018-02-21T04:57:01.316Z,26.83
2018-02-21T04:59:32.203Z,27.07
2018-02-21T05:01:58.537Z,24.60
2018-02-21T05:04:24.834Z,25.97
2018-02-21T05:06:51.197Z,27.57
2018-02-21T05:09:17.420Z,24.80
2018-02-21T05:11:43.689Z,26.50
2018-02-21T05:14:10.677Z,25.60
2018-02-21T05:16:37.393Z,28.13
2018-02-21T05:19:04.371Z,27.97
2018-02-21T05:21:30.642Z,26.07
2018-02-21T05:23:56.857Z,26.53
2018-02-21T05:26:23.907Z,27.30
2018-02-21T05:28:50.238Z,26.00
2018-02-21T05:31:16.528Z,27.40
2018-02-21T05:33:43.579Z,27.23
2018-02-21T05:36:09.865Z,26.30
2018-02-21T05:38:36.156Z,26.07
2018-02-21T05:41:02.436Z,24.70
2018-02-21T05:43:28.703Z,25.67
2018-02-21T05:45:54.957Z,27.63
2018-02-21T05:48:21.262Z,27.97
2018-02-21T05:50:47.589Z,27.23
2018-02-21T05:53:13.879Z,26.57
2018-02-21T05:55:40.102Z,27.70
2018-02-21T05:58:06.430Z,28.87
2018-02-21T06:00:33.362Z,26.57
2018-02-21T06:02:59.672Z,27.43
2018-02-21T06:05:25.916Z,26.80
2018-02-21T06:07:52.225Z,25.70
2018-02-21T06:10:18.461Z,26.07
2018-02-21T06:12:44.775Z,27.40
2018-02-21T06:15:11.012Z,28.70
2018-02-21T06:17:37.268Z,26.07
2018-02-21T06:20:04.570Z,28.20
2018-02-21T06:22:30.830Z,27.80
2018-02-21T06:24:57.108Z,28.83
2018-02-21T06:27:23.433Z,28.27
2018-02-21T06:29:49.786Z,24.37
2018-02-21T06:32:16.172Z,28.17
2018-02-21T06:34:42.503Z,26.47
2018-02-21T06:37:08.856Z,29.27
2018-02-21T06:39:36.042Z,26.63
2018-02-21T06:42:03.032Z,29.40
2018-02-21T06:44:29.331Z,28.57
2018-02-21T06:46:56.572Z,29.37
2018-02-21T06:49:23.734Z,26.93
2018-02-21T06:51:50.925Z,27.20
2018-02-21T06:54:17.211Z,29.40
2018-02-21T06:56:44.305Z,28.63
2018-02-21T06:59:10.631Z,28.70
2018-02-21T07:01:36.893Z,27.90
2018-02-21T07:04:03.146Z,26.70
2018-02-21T07:06:29.463Z,28.97
2018-02-21T07:08:55.755Z,29.60
2018-02-21T07:11:22.057Z,26.10
2018-02-21T07:13:48.307Z,28.60
2018-02-21T07:16:14.636Z,26.77
2018-02-21T07:18:41.221Z,27.47
2018-02-21T07:21:08.300Z,28.33
2018-02-21T07:23:35.283Z,28.07
2018-02-21T07:26:01.535Z,27.93
2018-02-21T07:28:27.812Z,26.63
2018-02-21T07:30:54.065Z,28.43
2018-02-21T07:33:20.669Z,28.87
2018-02-21T07:35:47.056Z,28.03
2018-02-21T07:38:13.385Z,27.70
2018-02-21T07:40:39.634Z,27.47
2018-02-21T07:43:06.626Z,27.77
2018-02-21T07:45:32.924Z,28.33
2018-02-21T07:47:59.211Z,28.07
2018-02-21T07:50:25.437Z,27.73
2018-02-21T07:52:51.745Z,26.40
2018-02-21T07:55:17.966Z,27.77
2018-02-21T07:57:44.219Z,26.40
2018-02-21T08:00:10.574Z,27.23
2018-02-21T08:02:36.816Z,28.57
2018-02-21T08:05:03.842Z,26.40
2018-02-21T08:07:30.338Z,28.00
2018-02-21T08:09:56.614Z,28.27
2018-02-21T08:12:22.896Z,28.67
2018-02-21T08:14:49.149Z,30.67
2018-02-21T08:17:15.399Z,29.30
2018-02-21T08:19:41.666Z,31.07
2018-02-21T08:22:08.734Z,28.00
2018-02-21T08:24:35.014Z,31.03
2018-02-21T08:27:01.298Z,29.50
2018-02-21T08:29:27.650Z,28.77
2018-02-21T08:31:53.878Z,29.97
2018-02-21T08:34:20.152Z,30.00
2018-02-21T08:36:47.242Z,32.20
2018-02-21T08:39:13.526Z,29.30
2018-02-21T08:41:40.529Z,29.40
2018-02-21T08:44:06.914Z,30.67
2018-02-21T08:46:33.207Z,30.50
2018-02-21T08:48:59.473Z,29.10
2018-02-21T08:51:25.725Z,27.93
2018-02-21T08:53:51.980Z,26.80
2018-02-21T08:56:18.261Z,27.07
2018-02-21T08:58:44.668Z,26.03
2018-02-21T09:01:10.948Z,26.83
2018-02-21T09:03:37.148Z,27.90
2018-02-21T09:06:03.389Z,26.00
2018-02-21T09:08:29.624Z,27.70
2018-02-21T09:10:55.902Z,26.30
2018-02-21T09:13:22.104Z,26.03
2018-02-21T09:15:48.351Z,24.57
2018-02-21T09:18:14.533Z,26.27
2018-02-21T09:20:40.751Z,25.77
2018-02-21T09:23:07.718Z,24.80
2018-02-21T09:25:33.913Z,25.97
2018-02-21T09:28:00.933Z,24.53
2018-02-21T09:30:27.132Z,23.77
2018-02-21T09:32:53.350Z,24.27
2018-02-21T09:35:19.532Z,23.30
2018-02-21T09:37:46.482Z,24.57
2018-02-21T09:40:12.672Z,23.53
2018-02-21T09:42:38.864Z,21.93
2018-02-21T09:45:05.078Z,23.47
2018-02-21T09:47:32.072Z,21.03
2018-02-21T09:49:58.303Z,24.10
2018-02-21T09:52:24.495Z,23.10
2018-02-21T09:54:50.695Z,23.57
2018-02-21T09:57:17.695Z,22.97
2018-02-21T09:59:44.025Z,23.30
2018-02-21T10:02:10.232Z,22.50
2018-02-21T10:04:36.463Z,22.20
2018-02-21T10:07:02.696Z,23.20
2018-02-21T10:09:29.019Z,23.03
2018-02-21T10:11:55.506Z,23.60
2018-02-21T10:14:22.453Z,21.90
2018-02-21T10:16:48.658Z,22.87
2018-02-21T10:19:14.870Z,23.00
2018-02-21T10:21:41.090Z,23.00
2018-02-21T10:24:07.340Z,21.73
2018-02-21T10:26:33.525Z,22.20
2018-02-21T10:28:59.871Z,22.77
2018-02-21T10:31:26.153Z,22.47
2018-02-21T10:33:52.376Z,22.70
2018-02-21T10:36:19.333Z,21.53
2018-02-21T10:38:46.275Z,23.00
2018-02-21T10:41:12.558Z,21.47
2018-02-21T10:43:38.766Z,20.50
2018-02-21T10:46:05.073Z,20.90
2018-02-21T10:48:31.320Z,20.17
2018-02-21T10:50:57.560Z,21.37
2018-02-21T10:53:23.756Z,19.13
2018-02-21T10:55:49.961Z,21.50
2018-02-21T10:58:16.908Z,20.43
2018-02-21T11:00:49.943Z,18.30
2018-02-21T11:03:16.176Z,17.17
2018-02-21T11:05:42.443Z,19.07
2018-02-21T11:08:09.488Z,17.80
2018-02-21T11:10:35.679Z,16.47
2018-02-21T11:13:01.987Z,16.13
2018-02-21T11:15:28.287Z,18.23
2018-02-21T11:17:54.492Z,18.40
2018-02-21T11:20:21.461Z,18.50
2018-02-21T11:22:47.751Z,18.30
2018-02-21T11:25:13.936Z,19.07
2018-02-21T11:27:40.170Z,20.73
2018-02-21T11:30:06.419Z,18.33
2018-02-21T11:32:32.639Z,17.77
2018-02-21T11:34:58.832Z,15.40
2018-02-21T11:37:25.063Z,17.43
2018-02-21T11:39:51.266Z,15.63
2018-02-21T11:42:18.251Z,13.30
2018-02-21T11:44:44.415Z,14.23
2018-02-21T11:47:10.723Z,14.43
2018-02-21T11:49:36.951Z,13.47
2018-02-21T11:52:03.135Z,14.57
2018-02-21T11:54:29.391Z,15.30
2018-02-21T11:56:55.818Z,15.30
2018-02-21T11:59:22.032Z,16.03
2018-02-21T12:01:48.241Z,13.90
2018-02-21T12:04:14.444Z,14.00
2018-02-21T12:06:41.093Z,13.77
2018-02-21T12:09:08.154Z,13.00
2018-02-21T12:11:34.491Z,13.17
2018-02-21T12:14:00.694Z,12.83
2018-02-21T12:16:26.906Z,11.37
2018-02-21T12:18:54.029Z,11.20
2018-02-21T12:21:20.275Z,11.13
2018-02-21T12:23:46.528Z,9.30
2018-02-21T12:26:13.485Z,10.43
2018-02-21T12:28:40.528Z,7.53
2018-02-21T12:31:06.834Z,8.10
2018-02-21T12:33:33.068Z,7.30
2018-02-21T12:36:00.045Z,6.80
2018-02-21T12:38:26.259Z,6.60
2018-02-21T12:40:59.225Z,6.47
2018-02-21T12:43:25.409Z,7.23
2018-02-21T12:45:51.701Z,6.70
2018-02-21T12:48:18.161Z,7.43
2018-02-21T12:50:44.417Z,6.70
2018-02-21T12:53:10.684Z,7.57
2018-02-21T12:55:36.902Z,6.77
2018-02-21T12:58:03.848Z,8.00
2018-02-21T13:00:30.889Z,7.17
2018-02-21T13:02:57.177Z,8.50
2018-02-21T13:05:23.540Z,7.10
2018-02-21T13:07:49.780Z,7.90
2018-02-21T13:10:16.785Z,7.27
2018-02-21T13:12:43.267Z,7.60
2018-02-21T13:15:09.603Z,9.30
2018-02-21T13:17:35.923Z,9.67
2018-02-21T13:20:02.859Z,9.80
2018-02-21T13:22:29.879Z,9.57
2018-02-21T13:24:56.096Z,8.93
2018-02-21T13:27:22.593Z,8.57
2018-02-21T13:29:48.855Z,10.10
2018-02-21T13:32:15.069Z,10.60
2018-02-21T13:34:41.271Z,9.73
2018-02-21T13:37:07.496Z,10.60
2018-02-21T13:39:33.759Z,10.47
2018-02-21T13:41:59.961Z,10.20
2018-02-21T13:44:26.188Z,10.33
2018-02-21T13:46:52.367Z,9.80
2018-02-21T13:49:18.589Z,10.53
2018-02-21T13:51:44.807Z,11.37
2018-02-21T13:54:11.013Z,10.90
2018-02-21T13:56:37.252Z,11.90
2018-02-21T13:59:03.569Z,10.50
2018-02-21T14:01:30.744Z,11.43
2018-02-21T14:04:04.112Z,9.47
2018-02-21T14:06:30.317Z,11.17
2018-02-21T14:08:56.575Z,9.37
2018-02-21T14:11:22.799Z,9.93
2018-02-21T14:13:48.978Z,10.73
2018-02-21T14:16:15.227Z,9.17
2018-02-21T14:18:41.421Z,9.40
2018-02-21T14:21:07.637Z,9.80
2018-02-21T14:23:33.859Z,9.47
2018-02-21T14:26:00.105Z,9.47
2018-02-21T14:28:27.085Z,9.87
2018-02-21T14:30:53.485Z,10.37
2018-02-21T14:33:20.467Z,8.90
2018-02-21T14:35:46.711Z,8.70
2018-02-21T14:38:19.951Z,8.70
2018-02-21T14:40:46.880Z,9.57
2018-02-21T14:43:13.117Z,9.00
2018-02-21T14:45:39.340Z,9.50
2018-02-21T14:48:06.390Z,8.13
2018-02-21T14:50:35.252Z,8.83
2018-02-21T14:53:02.279Z,9.17
2018-02-21T14:55:28.484Z,8.77
2018-02-21T14:57:54.719Z,9.40
2018-02-21T15:00:20.955Z,9.70
2018-02-21T15:02:47.577Z,9.73
2018-02-21T15:05:13.862Z,9.60
2018-02-21T15:07:40.111Z,9.93
2018-02-21T15:10:06.404Z,10.00
2018-02-21T15:12:32.690Z,9.70
2018-02-21T15:14:58.902Z,8.30
2018-02-21T15:17:25.206Z,10.43
2018-02-21T15:19:51.416Z,9.20
2018-02-21T15:22:17.662Z,9.80
2018-02-21T15:24:43.891Z,10.03
2018-02-21T15:27:10.127Z,9.90
2018-02-21T15:29:36.379Z,10.07
2018-02-21T15:32:02.613Z,9.33
2018-02-21T15:34:28.833Z,10.17
2018-02-21T15:36:55.212Z,9.50
2018-02-21T15:39:21.496Z,10.70
2018-02-21T15:41:47.762Z,10.60
2018-02-21T15:44:14.672Z,11.30
2018-02-21T15:46:41.010Z,11.83
2018-02-21T15:49:07.255Z,13.10
2018-02-21T15:51:33.471Z,11.90
2018-02-21T15:53:59.727Z,12.80
2018-02-21T15:56:25.929Z,12.40
2018-02-21T15:58:52.153Z,12.07
2018-02-21T16:01:18.343Z,12.70
2018-02-21T16:03:45.293Z,12.37
2018-02-21T16:06:11.528Z,12.17
2018-02-21T16:08:38.464Z,12.80
2018-02-21T16:11:05.620Z,11.33
2018-02-21T16:13:31.913Z,12.70
2018-02-21T16:15:58.183Z,13.17
2018-02-21T16:18:24.445Z,13.50
2018-02-21T16:20:50.674Z,11.87
2018-02-21T16:23:16.868Z,11.57
2018-02-21T16:25:43.095Z,11.43
2018-02-21T16:28:09.317Z,11.60
2018-02-21T16:30:35.546Z,11.60
2018-02-21T16:33:01.786Z,11.97
2018-02-21T16:35:27.967Z,16.60
2018-02-21T16:37:54.924Z,19.83
2018-02-21T16:40:21.866Z,15.70
2018-02-21T16:42:49.683Z,15.20
2018-02-21T16:45:16.083Z,12.53
2018-02-21T16:47:42.939Z,12.30
2018-02-21T16:50:09.341Z,12.00
2018-02-21T16:52:37.372Z,11.90
2018-02-21T16:55:04.393Z,11.57
2018-02-21T16:57:30.699Z,11.37
2018-02-21T16:59:56.914Z,10.63
2018-02-21T17:02:23.717Z,11.90
2018-02-21T17:04:50.840Z,12.13
2018-02-21T17:07:17.792Z,10.87
2018-02-21T17:09:44.821Z,11.30
2018-02-21T17:12:11.077Z,11.70
2018-02-21T17:14:37.855Z,12.13
2018-02-21T17:17:04.995Z,11.40
2018-02-21T17:19:31.377Z,11.70
2018-02-21T17:21:57.960Z,11.60
2018-02-21T17:24:27.234Z,10.33
2018-02-21T17:26:53.711Z,11.50
2018-02-21T17:29:20.639Z,12.03
2018-02-21T17:31:47.617Z,10.63
2018-02-21T17:34:13.819Z,12.00
2018-02-21T17:36:40.777Z,12.40
2018-02-21T17:39:07.058Z,12.13
2018-02-21T17:41:33.335Z,12.37
2018-02-21T17:44:00.851Z,13.30
2018-02-21T17:46:27.125Z,12.33
2018-02-21T17:48:53.394Z,13.03
2018-02-21T17:51:19.631Z,12.60
2018-02-21T17:53:46.919Z,12.70
2018-02-21T17:56:15.181Z,13.27
2018-02-21T17:58:41.536Z,13.23
2018-02-21T18:01:07.827Z,12.80
2018-02-21T18:03:34.159Z,14.00
2018-02-21T18:06:01.165Z,15.70
2018-02-21T18:08:27.432Z,13.17
2018-02-21T18:10:53.672Z,12.60
2018-02-21T18:13:20.618Z,12.63
2018-02-21T18:15:47.627Z,14.10
2018-02-21T18:18:13.850Z,14.93
2018-02-21T18:20:40.223Z,15.53
2018-02-21T18:23:07.248Z,20.77
2018-02-21T18:25:33.451Z,17.93
2018-02-21T18:27:59.660Z,16.30
2018-02-21T18:30:26.046Z,16.67
2018-02-21T18:32:52.970Z,15.30
2018-02-21T18:35:19.191Z,14.33
2018-02-21T18:37:45.404Z,15.43
2018-02-21T18:40:11.632Z,17.83
2018-02-21T18:42:37.815Z,17.40
2018-02-21T18:45:04.791Z,18.37
2018-02-21T18:47:31.072Z,17.00
2018-02-21T18:49:58.035Z,17.23
2018-02-21T18:52:24.386Z,16.13
2018-02-21T18:54:51.342Z,17.83
2018-02-21T18:57:17.601Z,16.60
2018-02-21T18:59:43.822Z,16.30
2018-02-21T19:02:10.032Z,15.40
2018-02-21T19:04:36.256Z,16.57
2018-02-21T19:07:02.468Z,15.60
2018-02-21T19:09:28.710Z,17.00
2018-02-21T19:11:55.519Z,16.00
2018-02-21T19:14:21.774Z,16.60
2018-02-21T19:16:47.980Z,16.10
2018-02-21T19:19:14.255Z,15.93
2018-02-21T19:21:40.491Z,14.90
2018-02-21T19:24:06.660Z,16.23
2018-02-21T19:26:32.855Z,15.73
2018-02-21T19:28:59.040Z,16.60
2018-02-21T19:31:25.290Z,16.90
2018-02-21T19:33:51.524Z,16.30
2018-02-21T19:36:17.752Z,15.37
2018-02-21T19:38:43.959Z,15.03
2018-02-21T19:41:10.183Z,14.77
2018-02-21T19:43:36.383Z,86.80
2018-02-21T19:46:02.584Z,51.97
2018-02-21T19:48:28.813Z,22.50
2018-02-21T19:50:55.031Z,26.90
2018-02-21T19:53:21.981Z,19.07
2018-02-21T19:55:48.911Z,35.97
2018-02-21T19:58:15.160Z,18.63
2018-02-21T20:00:41.549Z,19.77
2018-02-21T20:03:07.807Z,19.20
2018-02-21T20:05:34.766Z,19.20
2018-02-21T20:08:01.003Z,20.40
2018-02-21T20:10:27.280Z,17.80
2018-02-21T20:12:53.511Z,17.27
2018-02-21T20:15:19.759Z,17.50
2018-02-21T20:17:45.975Z,17.53
2018-02-21T20:20:12.964Z,16.60
2018-02-21T20:22:39.471Z,15.03
2018-02-21T20:25:06.451Z,15.63
2018-02-21T20:27:32.916Z,15.50
2018-02-21T20:29:59.232Z,13.67
2018-02-21T20:32:25.473Z,14.50
2018-02-21T20:34:51.719Z,14.77
2018-02-21T20:37:19.041Z,14.07
2018-02-21T20:39:45.472Z,13.53
2018-02-21T20:42:11.685Z,13.90
2018-02-21T20:44:38.651Z,14.07
2018-02-21T20:47:04.889Z,14.10
2018-02-21T20:49:31.147Z,13.97
2018-02-21T20:51:57.414Z,14.20
2018-02-21T20:54:23.598Z,13.80
2018-02-21T20:56:50.566Z,12.63
2018-02-21T20:59:16.793Z,13.47
2018-02-21T21:01:43.047Z,13.20
2018-02-21T21:04:09.261Z,12.60
2018-02-21T21:06:35.524Z,14.20
2018-02-21T21:09:02.509Z,12.37
2018-02-21T21:11:28.746Z,13.00
2018-02-21T21:13:54.996Z,14.53
2018-02-21T21:16:21.271Z,14.70
2018-02-21T21:18:47.524Z,14.10
2018-02-21T21:21:13.786Z,14.80
2018-02-21T21:23:40.038Z,12.30
2018-02-21T21:26:06.984Z,13.30
2018-02-21T21:28:33.215Z,14.20
2018-02-21T21:31:00.167Z,14.77
2018-02-21T21:33:27.232Z,13.60
2018-02-21T21:35:53.440Z,13.60
2018-02-21T21:38:20.428Z,14.07
2018-02-21T21:40:47.380Z,14.43
2018-02-21T21:43:13.621Z,14.37
2018-02-21T21:45:39.832Z,13.40
2018-02-21T21:48:06.019Z,14.50
2018-02-21T21:50:32.283Z,12.47
2018-02-21T21:52:58.475Z,14.80
2018-02-21T21:55:24.709Z,13.43
2018-02-21T21:57:50.893Z,13.00
2018-02-21T22:00:17.126Z,12.20
2018-02-21T22:02:43.365Z,13.00
2018-02-21T22:05:09.599Z,13.17
2018-02-21T22:07:36.579Z,13.70
2018-02-21T22:10:02.793Z,12.83
2018-02-21T22:12:29.121Z,13.60
2018-02-21T22:14:55.425Z,14.77
2018-02-21T22:17:21.657Z,13.30
2018-02-21T22:19:48.593Z,13.60
2018-02-21T22:22:14.797Z,13.27
2018-02-21T22:24:41.036Z,13.80
2018-02-21T22:27:07.215Z,14.37
2018-02-21T22:29:33.446Z,14.43
2018-02-21T22:31:59.635Z,13.50
2018-02-21T22:34:25.879Z,12.70
2018-02-21T22:36:52.090Z,14.20
2018-02-21T22:39:18.417Z,14.10
2018-02-21T22:41:44.653Z,13.60
2018-02-21T22:44:11.583Z,14.43
2018-02-21T22:46:37.798Z,13.97
2018-02-21T22:49:03.988Z,13.77
2018-02-21T22:51:30.261Z,14.63
2018-02-21T22:53:56.459Z,14.63
2018-02-21T22:56:22.665Z,13.50
2018-02-21T22:58:48.870Z,13.90
2018-02-21T23:01:15.063Z,13.20
2018-02-21T23:03:42.039Z,14.63
2018-02-21T23:06:08.962Z,14.00
2018-02-21T23:08:35.190Z,15.37
2018-02-21T23:11:02.195Z,14.70
2018-02-21T23:13:28.412Z,13.40
2018-02-21T23:15:54.655Z,14.13
2018-02-21T23:18:20.910Z,14.70
2018-02-21T23:20:47.182Z,13.77
2018-02-21T23:23:13.398Z,13.83
2018-02-21T23:25:39.664Z,15.57
2018-02-21T23:28:05.849Z,15.43
2018-02-21T23:30:32.155Z,13.80
2018-02-21T23:32:58.377Z,14.60
2018-02-21T23:35:24.732Z,15.13
2018-02-21T23:37:50.972Z,13.73
2018-02-21T23:40:17.175Z,15.83
2018-02-21T23:42:44.119Z,15.00
2018-02-21T23:45:11.061Z,15.03
2018-02-21T23:47:38.030Z,15.10
2018-02-21T23:50:04.229Z,14.93
2018-02-21T23:52:31.257Z,15.00
2018-02-21T23:54:57.423Z,15.63
2018-02-21T23:57:23.618Z,15.60
2018-02-21T23:59:49.774Z,15.23
